sensor_id;sensor_type;location;lat;lon;timestamp;P1;durP1;ratioP1;P2;durP2;ratioP2
35126;SDS011;21300;52.006;5.798;2023-11-21T00:00:17;8.77;;;4.28;;
35126;SDS011;21300;52.006;5.798;2023-11-21T00:02:43;9.00;;;4.07;;
35126;SDS011;21300;52.006;5.798;2023-11-21T00:05:11;8.48;;;4.22;;
35126;SDS011;21300;52.006;5.798;2023-11-21T00:07:38;7.30;;;4.18;;
35126;SDS011;21300;52.006;5.798;2023-11-21T00:10:04;9.00;;;4.20;;
35126;SDS011;21300;52.006;5.798;2023-11-21T00:12:31;9.50;;;5.20;;
35126;SDS011;21300;52.006;5.798;2023-11-21T00:14:58;9.27;;;4.03;;
35126;SDS011;21300;52.006;5.798;2023-11-21T00:17:24;9.35;;;3.97;;
35126;SDS011;21300;52.006;5.798;2023-11-21T00:19:50;10.95;;;4.93;;
35126;SDS011;21300;52.006;5.798;2023-11-21T00:22:18;6.38;;;3.80;;
35126;SDS011;21300;52.006;5.798;2023-11-21T00:24:45;6.82;;;3.33;;
35126;SDS011;21300;52.006;5.798;2023-11-21T00:27:11;9.70;;;4.28;;
35126;SDS011;21300;52.006;5.798;2023-11-21T00:29:36;6.55;;;3.60;;
35126;SDS011;21300;52.006;5.798;2023-11-21T00:32:03;9.38;;;5.07;;
35126;SDS011;21300;52.006;5.798;2023-11-21T00:34:30;10.05;;;4.75;;
35126;SDS011;21300;52.006;5.798;2023-11-21T00:36:56;7.13;;;3.95;;
35126;SDS011;21300;52.006;5.798;2023-11-21T00:39:22;10.20;;;4.22;;
35126;SDS011;21300;52.006;5.798;2023-11-21T00:41:47;7.50;;;3.72;;
35126;SDS011;21300;52.006;5.798;2023-11-21T00:44:13;6.07;;;3.60;;
35126;SDS011;21300;52.006;5.798;2023-11-21T00:46:39;9.75;;;4.80;;
35126;SDS011;21300;52.006;5.798;2023-11-21T00:49:04;7.82;;;3.38;;
35126;SDS011;21300;52.006;5.798;2023-11-21T00:51:30;9.13;;;3.60;;
35126;SDS011;21300;52.006;5.798;2023-11-21T00:53:56;7.13;;;4.07;;
35126;SDS011;21300;52.006;5.798;2023-11-21T00:56:21;7.50;;;3.45;;
35126;SDS011;21300;52.006;5.798;2023-11-21T00:58:50;6.25;;;3.97;;
35126;SDS011;21300;52.006;5.798;2023-11-21T01:01:20;5.07;;;3.17;;
35126;SDS011;21300;52.006;5.798;2023-11-21T01:03:49;10.40;;;4.38;;
35126;SDS011;21300;52.006;5.798;2023-11-21T01:06:15;9.75;;;4.97;;
35126;SDS011;21300;52.006;5.798;2023-11-21T01:08:41;8.70;;;3.50;;
35126;SDS011;21300;52.006;5.798;2023-11-21T01:11:07;10.82;;;4.32;;
35126;SDS011;21300;52.006;5.798;2023-11-21T01:13:33;8.63;;;3.97;;
35126;SDS011;21300;52.006;5.798;2023-11-21T01:16:00;12.45;;;4.30;;
35126;SDS011;21300;52.006;5.798;2023-11-21T01:18:26;10.77;;;4.18;;
35126;SDS011;21300;52.006;5.798;2023-11-21T01:20:52;11.02;;;4.15;;
35126;SDS011;21300;52.006;5.798;2023-11-21T01:23:21;8.45;;;3.97;;
35126;SDS011;21300;52.006;5.798;2023-11-21T01:25:47;10.70;;;4.25;;
35126;SDS011;21300;52.006;5.798;2023-11-21T01:28:12;9.55;;;4.50;;
35126;SDS011;21300;52.006;5.798;2023-11-21T01:30:38;9.57;;;4.40;;
35126;SDS011;21300;52.006;5.798;2023-11-21T01:33:04;9.80;;;4.50;;
35126;SDS011;21300;52.006;5.798;2023-11-21T01:35:29;9.68;;;4.35;;
35126;SDS011;21300;52.006;5.798;2023-11-21T01:37:55;8.90;;;4.35;;
35126;SDS011;21300;52.006;5.798;2023-11-21T01:40:21;14.52;;;5.63;;
35126;SDS011;21300;52.006;5.798;2023-11-21T01:42:47;8.75;;;3.40;;
35126;SDS011;21300;52.006;5.798;2023-11-21T01:45:13;11.40;;;5.32;;
35126;SDS011;21300;52.006;5.798;2023-11-21T01:47:39;11.60;;;4.20;;
35126;SDS011;21300;52.006;5.798;2023-11-21T01:50:07;10.15;;;5.15;;
35126;SDS011;21300;52.006;5.798;2023-11-21T01:52:36;8.98;;;4.85;;
35126;SDS011;21300;52.006;5.798;2023-11-21T01:55:04;11.23;;;5.65;;
35126;SDS011;21300;52.006;5.798;2023-11-21T01:57:31;9.43;;;4.90;;
35126;SDS011;21300;52.006;5.798;2023-11-21T01:59:57;8.98;;;4.35;;
35126;SDS011;21300;52.006;5.798;2023-11-21T02:02:25;10.38;;;4.63;;
35126;SDS011;21300;52.006;5.798;2023-11-21T02:04:51;9.95;;;4.75;;
35126;SDS011;21300;52.006;5.798;2023-11-21T02:07:16;6.78;;;3.97;;
35126;SDS011;21300;52.006;5.798;2023-11-21T02:09:44;10.70;;;5.05;;
35126;SDS011;21300;52.006;5.798;2023-11-21T02:12:10;9.00;;;4.05;;
35126;SDS011;21300;52.006;5.798;2023-11-21T02:14:36;10.50;;;4.57;;
35126;SDS011;21300;52.006;5.798;2023-11-21T02:17:02;7.32;;;4.25;;
35126;SDS011;21300;52.006;5.798;2023-11-21T02:19:28;10.98;;;4.32;;
35126;SDS011;21300;52.006;5.798;2023-11-21T02:21:56;8.27;;;4.05;;
35126;SDS011;21300;52.006;5.798;2023-11-21T02:24:31;7.10;;;4.15;;
35126;SDS011;21300;52.006;5.798;2023-11-21T02:26:57;8.73;;;3.58;;
35126;SDS011;21300;52.006;5.798;2023-11-21T02:29:22;10.15;;;4.63;;
35126;SDS011;21300;52.006;5.798;2023-11-21T02:31:52;7.57;;;4.05;;
35126;SDS011;21300;52.006;5.798;2023-11-21T02:34:19;6.40;;;3.45;;
35126;SDS011;21300;52.006;5.798;2023-11-21T02:36:46;7.25;;;3.55;;
35126;SDS011;21300;52.006;5.798;2023-11-21T02:39:14;9.10;;;3.45;;
35126;SDS011;21300;52.006;5.798;2023-11-21T02:41:41;8.48;;;4.53;;
35126;SDS011;21300;52.006;5.798;2023-11-21T02:44:07;9.13;;;4.10;;
35126;SDS011;21300;52.006;5.798;2023-11-21T02:46:33;14.70;;;5.70;;
35126;SDS011;21300;52.006;5.798;2023-11-21T02:49:00;10.07;;;4.65;;
35126;SDS011;21300;52.006;5.798;2023-11-21T02:51:26;10.27;;;4.25;;
35126;SDS011;21300;52.006;5.798;2023-11-21T02:53:52;10.57;;;4.47;;
35126;SDS011;21300;52.006;5.798;2023-11-21T02:56:17;15.93;;;6.00;;
35126;SDS011;21300;52.006;5.798;2023-11-21T02:58:43;15.35;;;6.38;;
35126;SDS011;21300;52.006;5.798;2023-11-21T03:01:10;12.05;;;5.32;;
35126;SDS011;21300;52.006;5.798;2023-11-21T03:03:36;12.82;;;5.43;;
35126;SDS011;21300;52.006;5.798;2023-11-21T03:06:05;13.65;;;5.15;;
35126;SDS011;21300;52.006;5.798;2023-11-21T03:08:31;12.77;;;6.22;;
35126;SDS011;21300;52.006;5.798;2023-11-21T03:10:57;13.70;;;5.90;;
35126;SDS011;21300;52.006;5.798;2023-11-21T03:13:23;13.90;;;5.47;;
35126;SDS011;21300;52.006;5.798;2023-11-21T03:15:49;13.52;;;5.80;;
35126;SDS011;21300;52.006;5.798;2023-11-21T03:18:14;10.77;;;4.78;;
35126;SDS011;21300;52.006;5.798;2023-11-21T03:20:40;16.35;;;5.78;;
35126;SDS011;21300;52.006;5.798;2023-11-21T03:23:06;13.05;;;6.22;;
35126;SDS011;21300;52.006;5.798;2023-11-21T03:25:32;12.23;;;5.00;;
35126;SDS011;21300;52.006;5.798;2023-11-21T03:27:57;13.45;;;6.15;;
35126;SDS011;21300;52.006;5.798;2023-11-21T03:30:23;8.65;;;3.95;;
35126;SDS011;21300;52.006;5.798;2023-11-21T03:32:48;13.63;;;5.68;;
35126;SDS011;21300;52.006;5.798;2023-11-21T03:35:14;11.80;;;6.18;;
35126;SDS011;21300;52.006;5.798;2023-11-21T03:37:40;13.25;;;5.85;;
35126;SDS011;21300;52.006;5.798;2023-11-21T03:40:07;13.95;;;6.18;;
35126;SDS011;21300;52.006;5.798;2023-11-21T03:42:37;13.73;;;6.35;;
35126;SDS011;21300;52.006;5.798;2023-11-21T03:45:03;11.57;;;5.38;;
35126;SDS011;21300;52.006;5.798;2023-11-21T03:47:30;12.65;;;5.55;;
35126;SDS011;21300;52.006;5.798;2023-11-21T03:49:55;14.88;;;5.22;;
35126;SDS011;21300;52.006;5.798;2023-11-21T03:52:21;13.73;;;6.45;;
35126;SDS011;21300;52.006;5.798;2023-11-21T03:54:46;12.50;;;5.00;;
35126;SDS011;21300;52.006;5.798;2023-11-21T05:39:14;14.25;;;6.72;;
35126;SDS011;21300;52.006;5.798;2023-11-21T05:41:42;12.55;;;6.15;;
35126;SDS011;21300;52.006;5.798;2023-11-21T05:44:08;15.32;;;6.57;;
35126;SDS011;21300;52.006;5.798;2023-11-21T05:46:34;15.95;;;6.85;;
35126;SDS011;21300;52.006;5.798;2023-11-21T05:49:00;19.52;;;7.57;;
35126;SDS011;21300;52.006;5.798;2023-11-21T05:51:25;19.58;;;7.00;;
35126;SDS011;21300;52.006;5.798;2023-11-21T05:53:51;13.38;;;6.45;;
35126;SDS011;21300;52.006;5.798;2023-11-21T05:56:16;12.40;;;6.20;;
35126;SDS011;21300;52.006;5.798;2023-11-21T05:58:43;16.25;;;6.80;;
35126;SDS011;21300;52.006;5.798;2023-11-21T06:01:08;12.77;;;6.82;;
35126;SDS011;21300;52.006;5.798;2023-11-21T06:03:37;11.15;;;5.70;;
35126;SDS011;21300;52.006;5.798;2023-11-21T06:06:03;12.75;;;6.10;;
35126;SDS011;21300;52.006;5.798;2023-11-21T06:08:29;12.82;;;5.97;;
35126;SDS011;21300;52.006;5.798;2023-11-21T06:10:55;11.23;;;6.20;;
35126;SDS011;21300;52.006;5.798;2023-11-21T06:13:20;12.65;;;6.65;;
35126;SDS011;21300;52.006;5.798;2023-11-21T06:15:49;15.70;;;7.05;;
35126;SDS011;21300;52.006;5.798;2023-11-21T06:18:18;11.82;;;7.05;;
35126;SDS011;21300;52.006;5.798;2023-11-21T06:20:47;10.30;;;5.68;;
35126;SDS011;21300;52.006;5.798;2023-11-21T06:23:15;16.15;;;7.38;;
35126;SDS011;21300;52.006;5.798;2023-11-21T06:25:41;9.88;;;6.18;;
35126;SDS011;21300;52.006;5.798;2023-11-21T06:28:07;18.02;;;6.75;;
35126;SDS011;21300;52.006;5.798;2023-11-21T06:30:32;15.48;;;7.05;;
35126;SDS011;21300;52.006;5.798;2023-11-21T06:32:58;13.38;;;7.03;;
35126;SDS011;21300;52.006;5.798;2023-11-21T06:35:24;15.70;;;7.22;;
35126;SDS011;21300;52.006;5.798;2023-11-21T06:37:50;14.30;;;6.18;;
35126;SDS011;21300;52.006;5.798;2023-11-21T06:40:16;13.52;;;6.35;;
35126;SDS011;21300;52.006;5.798;2023-11-21T06:42:43;12.07;;;6.53;;
35126;SDS011;21300;52.006;5.798;2023-11-21T06:45:09;12.27;;;5.75;;
35126;SDS011;21300;52.006;5.798;2023-11-21T06:47:36;14.02;;;6.22;;
35126;SDS011;21300;52.006;5.798;2023-11-21T06:50:03;12.98;;;6.25;;
35126;SDS011;21300;52.006;5.798;2023-11-21T06:52:29;13.55;;;6.78;;
35126;SDS011;21300;52.006;5.798;2023-11-21T06:54:54;14.07;;;7.13;;
35126;SDS011;21300;52.006;5.798;2023-11-21T06:57:20;13.38;;;6.63;;
35126;SDS011;21300;52.006;5.798;2023-11-21T06:59:48;16.60;;;6.57;;
35126;SDS011;21300;52.006;5.798;2023-11-21T07:02:15;11.63;;;6.25;;
35126;SDS011;21300;52.006;5.798;2023-11-21T07:04:43;13.65;;;6.70;;
35126;SDS011;21300;52.006;5.798;2023-11-21T07:07:12;17.92;;;6.53;;
35126;SDS011;21300;52.006;5.798;2023-11-21T07:09:38;13.38;;;6.72;;
35126;SDS011;21300;52.006;5.798;2023-11-21T07:12:04;12.73;;;6.05;;
35126;SDS011;21300;52.006;5.798;2023-11-21T07:14:39;15.65;;;7.15;;
35126;SDS011;21300;52.006;5.798;2023-11-21T07:17:06;16.67;;;7.40;;
35126;SDS011;21300;52.006;5.798;2023-11-21T07:19:31;16.58;;;7.13;;
35126;SDS011;21300;52.006;5.798;2023-11-21T07:21:57;14.18;;;7.20;;
35126;SDS011;21300;52.006;5.798;2023-11-21T07:24:22;16.42;;;8.23;;
35126;SDS011;21300;52.006;5.798;2023-11-21T07:26:48;14.77;;;7.85;;
35126;SDS011;21300;52.006;5.798;2023-11-21T07:29:14;13.55;;;7.22;;
35126;SDS011;21300;52.006;5.798;2023-11-21T07:31:39;14.80;;;7.65;;
35126;SDS011;21300;52.006;5.798;2023-11-21T07:34:06;13.50;;;7.43;;
35126;SDS011;21300;52.006;5.798;2023-11-21T07:36:33;17.45;;;7.32;;
35126;SDS011;21300;52.006;5.798;2023-11-21T07:38:58;14.45;;;6.75;;
35126;SDS011;21300;52.006;5.798;2023-11-21T07:41:24;14.00;;;6.95;;
35126;SDS011;21300;52.006;5.798;2023-11-21T07:43:50;16.00;;;7.32;;
35126;SDS011;21300;52.006;5.798;2023-11-21T07:46:15;17.13;;;6.85;;
35126;SDS011;21300;52.006;5.798;2023-11-21T07:48:42;13.40;;;6.90;;
35126;SDS011;21300;52.006;5.798;2023-11-21T07:51:08;17.58;;;6.93;;
35126;SDS011;21300;52.006;5.798;2023-11-21T07:53:34;16.00;;;6.80;;
35126;SDS011;21300;52.006;5.798;2023-11-21T07:56:08;12.85;;;6.25;;
35126;SDS011;21300;52.006;5.798;2023-11-21T07:58:35;16.27;;;6.90;;
35126;SDS011;21300;52.006;5.798;2023-11-21T08:01:02;13.65;;;7.15;;
35126;SDS011;21300;52.006;5.798;2023-11-21T08:03:28;11.80;;;6.05;;
35126;SDS011;21300;52.006;5.798;2023-11-21T08:05:55;17.05;;;7.28;;
35126;SDS011;21300;52.006;5.798;2023-11-21T08:08:21;14.38;;;6.93;;
35126;SDS011;21300;52.006;5.798;2023-11-21T08:10:47;17.88;;;7.38;;
35126;SDS011;21300;52.006;5.798;2023-11-21T08:13:27;12.77;;;7.68;;
35126;SDS011;21300;52.006;5.798;2023-11-21T08:15:54;15.20;;;6.72;;
35126;SDS011;21300;52.006;5.798;2023-11-21T08:18:21;19.80;;;7.75;;
35126;SDS011;21300;52.006;5.798;2023-11-21T08:20:47;20.33;;;8.25;;
35126;SDS011;21300;52.006;5.798;2023-11-21T08:23:14;16.13;;;7.65;;
35126;SDS011;21300;52.006;5.798;2023-11-21T08:25:42;16.75;;;6.75;;
35126;SDS011;21300;52.006;5.798;2023-11-21T08:28:08;16.00;;;7.05;;
35126;SDS011;21300;52.006;5.798;2023-11-21T08:30:34;17.77;;;7.95;;
35126;SDS011;21300;52.006;5.798;2023-11-21T08:33:00;17.23;;;7.32;;
35126;SDS011;21300;52.006;5.798;2023-11-21T08:35:25;15.98;;;7.00;;
35126;SDS011;21300;52.006;5.798;2023-11-21T08:37:51;18.52;;;8.20;;
35126;SDS011;21300;52.006;5.798;2023-11-21T08:40:20;16.13;;;7.72;;
35126;SDS011;21300;52.006;5.798;2023-11-21T08:42:46;20.73;;;7.95;;
35126;SDS011;21300;52.006;5.798;2023-11-21T08:45:13;17.08;;;8.20;;
35126;SDS011;21300;52.006;5.798;2023-11-21T08:47:39;16.33;;;8.05;;
35126;SDS011;21300;52.006;5.798;2023-11-21T08:50:06;21.00;;;8.93;;
35126;SDS011;21300;52.006;5.798;2023-11-21T08:52:33;18.40;;;8.05;;
35126;SDS011;21300;52.006;5.798;2023-11-21T08:54:59;20.08;;;8.38;;
35126;SDS011;21300;52.006;5.798;2023-11-21T08:57:28;17.00;;;7.90;;
35126;SDS011;21300;52.006;5.798;2023-11-21T08:59:54;20.42;;;8.90;;
35126;SDS011;21300;52.006;5.798;2023-11-21T09:02:25;21.20;;;8.52;;
35126;SDS011;21300;52.006;5.798;2023-11-21T09:04:51;17.15;;;8.73;;
35126;SDS011;21300;52.006;5.798;2023-11-21T09:07:20;20.80;;;7.88;;
35126;SDS011;21300;52.006;5.798;2023-11-21T09:09:47;20.73;;;8.15;;
35126;SDS011;21300;52.006;5.798;2023-11-21T09:12:13;17.08;;;7.57;;
35126;SDS011;21300;52.006;5.798;2023-11-21T09:14:38;17.55;;;8.25;;
35126;SDS011;21300;52.006;5.798;2023-11-21T09:17:07;17.92;;;7.50;;
35126;SDS011;21300;52.006;5.798;2023-11-21T09:19:39;18.33;;;8.20;;
35126;SDS011;21300;52.006;5.798;2023-11-21T09:22:06;15.75;;;7.05;;
35126;SDS011;21300;52.006;5.798;2023-11-21T09:24:32;13.93;;;7.22;;
35126;SDS011;21300;52.006;5.798;2023-11-21T09:26:58;20.50;;;8.52;;
35126;SDS011;21300;52.006;5.798;2023-11-21T09:29:25;16.73;;;7.80;;
35126;SDS011;21300;52.006;5.798;2023-11-21T09:31:51;19.23;;;8.10;;
35126;SDS011;21300;52.006;5.798;2023-11-21T09:34:17;18.13;;;7.65;;
35126;SDS011;21300;52.006;5.798;2023-11-21T09:36:46;18.48;;;7.63;;
35126;SDS011;21300;52.006;5.798;2023-11-21T09:39:12;17.05;;;6.82;;
35126;SDS011;21300;52.006;5.798;2023-11-21T09:41:43;20.55;;;8.68;;
35126;SDS011;21300;52.006;5.798;2023-11-21T09:44:13;17.73;;;6.95;;
35126;SDS011;21300;52.006;5.798;2023-11-21T09:46:42;12.23;;;6.43;;
35126;SDS011;21300;52.006;5.798;2023-11-21T09:49:09;12.55;;;6.28;;
35126;SDS011;21300;52.006;5.798;2023-11-21T09:51:42;15.32;;;7.45;;
35126;SDS011;21300;52.006;5.798;2023-11-21T09:54:08;14.25;;;6.55;;
35126;SDS011;21300;52.006;5.798;2023-11-21T09:56:37;12.95;;;6.15;;
35126;SDS011;21300;52.006;5.798;2023-11-21T09:59:03;14.48;;;6.82;;
35126;SDS011;21300;52.006;5.798;2023-11-21T10:01:38;19.75;;;6.20;;
35126;SDS011;21300;52.006;5.798;2023-11-21T10:04:05;12.18;;;5.45;;
35126;SDS011;21300;52.006;5.798;2023-11-21T10:06:38;13.57;;;6.03;;
35126;SDS011;21300;52.006;5.798;2023-11-21T10:09:06;13.07;;;6.05;;
35126;SDS011;21300;52.006;5.798;2023-11-21T10:11:40;10.15;;;4.95;;
35126;SDS011;21300;52.006;5.798;2023-11-21T10:14:08;13.32;;;5.20;;
35126;SDS011;21300;52.006;5.798;2023-11-21T10:16:37;14.63;;;6.38;;
35126;SDS011;21300;52.006;5.798;2023-11-21T10:19:04;13.10;;;5.95;;
35126;SDS011;21300;52.006;5.798;2023-11-21T10:21:33;15.02;;;6.25;;
35126;SDS011;21300;52.006;5.798;2023-11-21T10:23:58;15.35;;;6.55;;
35126;SDS011;21300;52.006;5.798;2023-11-21T10:26:25;13.85;;;6.20;;
35126;SDS011;21300;52.006;5.798;2023-11-21T10:29:00;12.65;;;5.80;;
35126;SDS011;21300;52.006;5.798;2023-11-21T10:31:30;12.68;;;6.10;;
35126;SDS011;21300;52.006;5.798;2023-11-21T10:36:41;10.00;;;4.90;;
35126;SDS011;21300;52.006;5.798;2023-11-21T10:39:20;9.20;;;5.10;;
35126;SDS011;21300;52.006;5.798;2023-11-21T10:41:48;11.35;;;4.63;;
35126;SDS011;21300;52.006;5.798;2023-11-21T10:44:14;11.20;;;4.90;;
35126;SDS011;21300;52.006;5.798;2023-11-21T10:46:50;11.48;;;5.47;;
35126;SDS011;21300;52.006;5.798;2023-11-21T10:49:20;9.70;;;4.60;;
35126;SDS011;21300;52.006;5.798;2023-11-21T10:51:46;10.77;;;4.57;;
35126;SDS011;21300;52.006;5.798;2023-11-21T10:54:16;9.23;;;4.35;;
35126;SDS011;21300;52.006;5.798;2023-11-21T10:56:43;8.07;;;4.35;;
35126;SDS011;21300;52.006;5.798;2023-11-21T10:59:10;9.88;;;4.72;;
35126;SDS011;21300;52.006;5.798;2023-11-21T11:01:41;12.18;;;5.13;;
35126;SDS011;21300;52.006;5.798;2023-11-21T11:04:09;11.32;;;5.78;;
35126;SDS011;21300;52.006;5.798;2023-11-21T11:06:43;8.30;;;4.00;;
35126;SDS011;21300;52.006;5.798;2023-11-21T11:09:10;10.63;;;4.57;;
35126;SDS011;21300;52.006;5.798;2023-11-21T11:11:38;9.40;;;4.47;;
35126;SDS011;21300;52.006;5.798;2023-11-21T11:14:10;9.30;;;4.72;;
35126;SDS011;21300;52.006;5.798;2023-11-21T11:16:37;11.60;;;4.80;;
35126;SDS011;21300;52.006;5.798;2023-11-21T11:19:10;13.77;;;6.15;;
35126;SDS011;21300;52.006;5.798;2023-11-21T11:27:23;9.95;;;5.40;;
35126;SDS011;21300;52.006;5.798;2023-11-21T11:30:05;11.40;;;5.38;;
35126;SDS011;21300;52.006;5.798;2023-11-21T11:32:58;9.98;;;4.88;;
35126;SDS011;21300;52.006;5.798;2023-11-21T11:36:05;9.85;;;4.88;;
35126;SDS011;21300;52.006;5.798;2023-11-21T11:38:38;12.60;;;5.20;;
35126;SDS011;21300;52.006;5.798;2023-11-21T11:41:05;10.45;;;5.45;;
35126;SDS011;21300;52.006;5.798;2023-11-21T11:43:32;9.07;;;4.07;;
35126;SDS011;21300;52.006;5.798;2023-11-21T11:45:59;10.15;;;4.05;;
35126;SDS011;21300;52.006;5.798;2023-11-21T11:48:34;11.75;;;4.32;;
35126;SDS011;21300;52.006;5.798;2023-11-21T11:51:04;7.57;;;3.47;;
35126;SDS011;21300;52.006;5.798;2023-11-21T11:53:40;9.77;;;4.50;;
35126;SDS011;21300;52.006;5.798;2023-11-21T11:58:56;7.10;;;4.18;;
35126;SDS011;21300;52.006;5.798;2023-11-21T12:01:23;7.05;;;2.90;;
35126;SDS011;21300;52.006;5.798;2023-11-21T12:06:39;6.20;;;3.05;;
35126;SDS011;21300;52.006;5.798;2023-11-21T12:09:06;5.53;;;2.78;;
35126;SDS011;21300;52.006;5.798;2023-11-21T12:11:39;7.50;;;3.20;;
35126;SDS011;21300;52.006;5.798;2023-11-21T12:14:09;6.50;;;3.30;;
35126;SDS011;21300;52.006;5.798;2023-11-21T12:16:35;6.30;;;2.92;;
35126;SDS011;21300;52.006;5.798;2023-11-21T12:19:00;4.82;;;2.63;;
35126;SDS011;21300;52.006;5.798;2023-11-21T12:21:26;5.50;;;2.85;;
35126;SDS011;21300;52.006;5.798;2023-11-21T12:23:52;6.45;;;2.70;;
35126;SDS011;21300;52.006;5.798;2023-11-21T12:26:18;5.43;;;2.97;;
35126;SDS011;21300;52.006;5.798;2023-11-21T12:28:43;7.07;;;2.97;;
35126;SDS011;21300;52.006;5.798;2023-11-21T12:31:19;7.63;;;3.20;;
35126;SDS011;21300;52.006;5.798;2023-11-21T12:33:45;8.52;;;4.05;;
35126;SDS011;21300;52.006;5.798;2023-11-21T12:36:11;9.70;;;4.45;;
35126;SDS011;21300;52.006;5.798;2023-11-21T12:38:36;9.50;;;4.70;;
35126;SDS011;21300;52.006;5.798;2023-11-21T12:41:02;9.45;;;4.68;;
35126;SDS011;21300;52.006;5.798;2023-11-21T12:43:31;9.70;;;4.80;;
35126;SDS011;21300;52.006;5.798;2023-11-21T12:46:07;14.73;;;5.18;;
35126;SDS011;21300;52.006;5.798;2023-11-21T12:48:38;11.32;;;4.95;;
35126;SDS011;21300;52.006;5.798;2023-11-21T12:51:07;11.15;;;5.55;;
35126;SDS011;21300;52.006;5.798;2023-11-21T12:53:33;12.77;;;5.07;;
35126;SDS011;21300;52.006;5.798;2023-11-21T12:56:12;12.48;;;5.65;;
35126;SDS011;21300;52.006;5.798;2023-11-21T12:58:43;8.95;;;4.13;;
35126;SDS011;21300;52.006;5.798;2023-11-21T13:01:12;11.45;;;4.53;;
35126;SDS011;21300;52.006;5.798;2023-11-21T13:03:43;13.30;;;5.60;;
35126;SDS011;21300;52.006;5.798;2023-11-21T13:06:10;9.02;;;4.70;;
35126;SDS011;21300;52.006;5.798;2023-11-21T13:08:37;13.10;;;5.78;;
35126;SDS011;21300;52.006;5.798;2023-11-21T13:11:04;12.60;;;5.45;;
35126;SDS011;21300;52.006;5.798;2023-11-21T13:13:31;11.55;;;5.43;;
35126;SDS011;21300;52.006;5.798;2023-11-21T13:15:57;14.40;;;5.93;;
35126;SDS011;21300;52.006;5.798;2023-11-21T13:18:32;10.90;;;5.47;;
35126;SDS011;21300;52.006;5.798;2023-11-21T13:20:58;10.75;;;6.28;;
35126;SDS011;21300;52.006;5.798;2023-11-21T13:23:25;13.75;;;5.65;;
35126;SDS011;21300;52.006;5.798;2023-11-21T13:25:52;12.93;;;5.00;;
35126;SDS011;21300;52.006;5.798;2023-11-21T13:28:19;12.63;;;5.35;;
35126;SDS011;21300;52.006;5.798;2023-11-21T13:30:47;8.50;;;4.43;;
35126;SDS011;21300;52.006;5.798;2023-11-21T13:33:13;10.30;;;5.15;;
35126;SDS011;21300;52.006;5.798;2023-11-21T13:35:46;10.57;;;5.85;;
35126;SDS011;21300;52.006;5.798;2023-11-21T13:38:16;11.63;;;5.28;;
35126;SDS011;21300;52.006;5.798;2023-11-21T13:40:47;10.07;;;5.05;;
35126;SDS011;21300;52.006;5.798;2023-11-21T13:43:21;11.90;;;4.75;;
35126;SDS011;21300;52.006;5.798;2023-11-21T13:45:52;10.27;;;4.70;;
35126;SDS011;21300;52.006;5.798;2023-11-21T13:48:41;7.35;;;4.22;;
35126;SDS011;21300;52.006;5.798;2023-11-21T13:51:08;9.30;;;4.28;;
35126;SDS011;21300;52.006;5.798;2023-11-21T13:53:44;13.15;;;4.50;;
35126;SDS011;21300;52.006;5.798;2023-11-21T13:56:12;8.80;;;5.10;;
35126;SDS011;21300;52.006;5.798;2023-11-21T13:58:43;10.02;;;3.53;;
35126;SDS011;21300;52.006;5.798;2023-11-21T14:01:16;7.82;;;5.00;;
35126;SDS011;21300;52.006;5.798;2023-11-21T14:06:33;5.55;;;2.28;;
35126;SDS011;21300;52.006;5.798;2023-11-21T14:09:07;7.78;;;2.45;;
35126;SDS011;21300;52.006;5.798;2023-11-21T14:11:32;7.32;;;2.40;;
35126;SDS011;21300;52.006;5.798;2023-11-21T14:13:59;7.05;;;2.75;;
35126;SDS011;21300;52.006;5.798;2023-11-21T14:16:25;7.63;;;3.25;;
35126;SDS011;21300;52.006;5.798;2023-11-21T14:18:50;6.07;;;2.72;;
35126;SDS011;21300;52.006;5.798;2023-11-21T14:21:26;9.63;;;3.65;;
35126;SDS011;21300;52.006;5.798;2023-11-21T14:23:52;10.95;;;3.67;;
35126;SDS011;21300;52.006;5.798;2023-11-21T14:26:20;11.88;;;3.60;;
35126;SDS011;21300;52.006;5.798;2023-11-21T14:28:45;8.30;;;3.33;;
35126;SDS011;21300;52.006;5.798;2023-11-21T14:31:20;10.95;;;3.78;;
35126;SDS011;21300;52.006;5.798;2023-11-21T14:33:47;10.27;;;3.92;;
35126;SDS011;21300;52.006;5.798;2023-11-21T14:36:13;9.75;;;3.90;;
35126;SDS011;21300;52.006;5.798;2023-11-21T14:38:42;7.45;;;3.28;;
35126;SDS011;21300;52.006;5.798;2023-11-21T14:41:07;7.78;;;3.22;;
35126;SDS011;21300;52.006;5.798;2023-11-21T14:43:34;8.45;;;4.22;;
35126;SDS011;21300;52.006;5.798;2023-11-21T14:46:01;8.73;;;3.20;;
35126;SDS011;21300;52.006;5.798;2023-11-21T14:48:31;6.78;;;2.80;;
35126;SDS011;21300;52.006;5.798;2023-11-21T14:51:07;7.38;;;3.63;;
35126;SDS011;21300;52.006;5.798;2023-11-21T14:56:25;9.70;;;4.90;;
35126;SDS011;21300;52.006;5.798;2023-11-21T14:58:59;12.23;;;4.93;;
35126;SDS011;21300;52.006;5.798;2023-11-21T15:01:31;11.45;;;4.65;;
35126;SDS011;21300;52.006;5.798;2023-11-21T15:04:19;10.27;;;4.82;;
35126;SDS011;21300;52.006;5.798;2023-11-21T15:06:58;8.05;;;3.85;;
35126;SDS011;21300;52.006;5.798;2023-11-21T15:09:24;10.23;;;5.05;;
35126;SDS011;21300;52.006;5.798;2023-11-21T15:12:10;12.45;;;5.43;;
35126;SDS011;21300;52.006;5.798;2023-11-21T15:14:46;11.65;;;5.30;;
35126;SDS011;21300;52.006;5.798;2023-11-21T15:17:20;9.20;;;4.82;;
35126;SDS011;21300;52.006;5.798;2023-11-21T15:19:55;12.25;;;5.70;;
35126;SDS011;21300;52.006;5.798;2023-11-21T15:22:21;11.25;;;5.32;;
35126;SDS011;21300;52.006;5.798;2023-11-21T15:24:47;12.40;;;5.78;;
35126;SDS011;21300;52.006;5.798;2023-11-21T15:27:14;10.98;;;6.45;;
35126;SDS011;21300;52.006;5.798;2023-11-21T15:29:40;9.07;;;5.05;;
35126;SDS011;21300;52.006;5.798;2023-11-21T15:32:06;11.98;;;5.35;;
35126;SDS011;21300;52.006;5.798;2023-11-21T15:34:33;11.40;;;5.70;;
35126;SDS011;21300;52.006;5.798;2023-11-21T15:36:59;9.85;;;4.15;;
35126;SDS011;21300;52.006;5.798;2023-11-21T15:39:24;8.43;;;4.43;;
35126;SDS011;21300;52.006;5.798;2023-11-21T15:41:54;12.80;;;5.63;;
35126;SDS011;21300;52.006;5.798;2023-11-21T15:44:20;9.07;;;4.57;;
35126;SDS011;21300;52.006;5.798;2023-11-21T15:46:45;8.75;;;5.20;;
35126;SDS011;21300;52.006;5.798;2023-11-21T15:49:12;6.32;;;3.90;;
35126;SDS011;21300;52.006;5.798;2023-11-21T15:51:39;8.63;;;4.50;;
35126;SDS011;21300;52.006;5.798;2023-11-21T15:54:10;11.00;;;4.43;;
35126;SDS011;21300;52.006;5.798;2023-11-21T15:56:36;9.88;;;4.32;;
35126;SDS011;21300;52.006;5.798;2023-11-21T15:59:03;10.02;;;4.65;;
35126;SDS011;21300;52.006;5.798;2023-11-21T16:01:28;9.30;;;3.78;;
35126;SDS011;21300;52.006;5.798;2023-11-21T16:03:54;7.05;;;3.83;;
35126;SDS011;21300;52.006;5.798;2023-11-21T16:06:20;8.00;;;4.35;;
35126;SDS011;21300;52.006;5.798;2023-11-21T16:08:46;9.30;;;4.22;;
35126;SDS011;21300;52.006;5.798;2023-11-21T16:11:13;7.95;;;3.97;;
35126;SDS011;21300;52.006;5.798;2023-11-21T16:13:38;6.60;;;3.33;;
35126;SDS011;21300;52.006;5.798;2023-11-21T16:16:06;6.93;;;3.33;;
35126;SDS011;21300;52.006;5.798;2023-11-21T16:18:34;7.28;;;3.92;;
35126;SDS011;21300;52.006;5.798;2023-11-21T16:21:00;8.43;;;3.97;;
35126;SDS011;21300;52.006;5.798;2023-11-21T16:23:25;7.10;;;3.55;;
35126;SDS011;21300;52.006;5.798;2023-11-21T16:25:51;6.28;;;3.65;;
35126;SDS011;21300;52.006;5.798;2023-11-21T16:28:20;7.28;;;3.85;;
35126;SDS011;21300;52.006;5.798;2023-11-21T16:30:50;7.68;;;3.80;;
35126;SDS011;21300;52.006;5.798;2023-11-21T16:33:15;7.05;;;3.67;;
35126;SDS011;21300;52.006;5.798;2023-11-21T16:35:41;7.55;;;4.07;;
35126;SDS011;21300;52.006;5.798;2023-11-21T16:38:07;9.18;;;4.03;;
35126;SDS011;21300;52.006;5.798;2023-11-21T16:40:33;11.55;;;4.38;;
35126;SDS011;21300;52.006;5.798;2023-11-21T16:42:58;9.60;;;4.05;;